Time;durP1;ratioP1;P1;durP2;ratioP2;P2;SDS_P1;SDS_P2;PMS_P1;PMS_P2;Temp;Humidity;BMP_temperature;BMP_pressure;BME280_temperature;BME280_humidity;BME280_pressure;Samples;Min_cycle;Max_cycle;Signal;HPM_P1;HPM_P2
2023/12/23 15:21:10;;;;;;;0.70;0.70;;;;;;;16.55;14.01;91838.56;5015155;27;20129;-77
2023/12/23 15:23:35;;;;;;;1.50;0.70;;;;;;;16.53;14.57;91838.19;5030636;28;20090;-77
2023/12/23 15:26:01;;;;;;;0.60;0.60;;;;;;;16.50;14.43;91836.19;5039069;28;20116;-77
2023/12/23 15:28:27;;;;;;;0.77;0.77;;;;;;;16.41;14.71;91844.25;5018015;28;20034;-81
2023/12/23 15:30:53;;;;;;;0.68;0.68;;;;;;;16.46;14.60;91854.59;5014364;28;20037;-77
2023/12/23 15:33:19;;;;;;;0.68;0.63;;;;;;;16.26;15.05;91853.69;5010434;28;20673;-77
2023/12/23 15:35:45;;;;;;;1.48;0.77;;;;;;;16.12;15.43;91853.28;4990661;28;20030;-77
2023/12/23 15:38:11;;;;;;;0.80;0.80;;;;;;;16.17;14.30;91861.75;5013470;28;20034;-77
2023/12/23 15:40:36;;;;;;;0.40;0.40;;;;;;;16.17;14.72;91872.31;5029147;28;20109;-77
2023/12/23 15:43:04;;;;;;;0.60;0.60;;;;;;;16.19;13.63;91850.88;5019971;28;20047;-77
2023/12/23 15:45:29;;;;;;;0.60;0.60;;;;;;;16.17;14.39;91871.56;5053565;28;20237;-78
2023/12/23 15:47:55;;;;;;;0.70;0.70;;;;;;;16.19;14.05;91861.44;5031295;28;20096;-77
2023/12/23 15:50:20;;;;;;;0.60;0.60;;;;;;;16.10;14.37;91864.19;5056054;28;20049;-78
2023/12/23 15:52:46;;;;;;;0.57;0.57;;;;;;;15.97;14.08;91874.00;5018949;28;20038;-78
2023/12/23 15:55:12;;;;;;;0.73;0.73;;;;;;;16.10;13.46;91866.06;5029256;28;20373;-77
2023/12/23 15:57:38;;;;;;;1.13;0.68;;;;;;;16.13;13.38;91850.31;5038578;28;20517;-77
2023/12/23 16:00:04;;;;;;;0.70;0.70;;;;;;;16.05;13.38;91859.13;5016471;28;20034;-78
2023/12/23 16:02:42;;;;;;;0.55;0.55;;;;;;;15.93;14.27;91883.69;5013096;28;20038;-78
2023/12/23 16:05:08;;;;;;;0.85;0.82;;;;;;;15.80;13.94;91853.16;5017771;28;20093;-79
2023/12/23 16:07:34;;;;;;;0.63;0.60;;;;;;;15.95;13.06;91860.38;5011162;28;20106;-78
2023/12/23 16:09:59;;;;;;;0.70;0.70;;;;;;;15.92;12.97;91871.63;5010825;28;20031;-78
2023/12/23 16:12:25;;;;;;;0.95;0.80;;;;;;;15.84;13.54;91863.81;5021560;28;20759;-80
2023/12/23 16:14:51;;;;;;;0.50;0.50;;;;;;;15.86;13.45;91891.41;5021361;28;20037;-78
2023/12/23 16:17:18;;;;;;;0.50;0.50;;;;;;;15.70;13.34;91879.97;5014554;28;20054;-79
2023/12/23 16:19:45;;;;;;;0.70;0.70;;;;;;;15.70;13.57;91869.44;5023828;28;20328;-79
2023/12/23 16:22:12;;;;;;;0.65;0.65;;;;;;;15.64;13.17;91882.06;5017020;28;20040;-77
2023/12/23 16:24:38;;;;;;;1.95;0.77;;;;;;;15.74;12.35;91875.63;5013270;28;20384;-79
2023/12/23 16:27:04;;;;;;;0.50;0.50;;;;;;;15.80;12.39;91879.53;5024143;28;20877;-77
2023/12/23 16:29:30;;;;;;;0.60;0.60;;;;;;;15.77;12.75;91893.41;5014177;28;20034;-78
2023/12/23 16:31:56;;;;;;;0.52;0.52;;;;;;;15.67;13.18;91885.91;5001314;28;20034;-79
2023/12/23 16:34:21;;;;;;;0.88;0.70;;;;;;;15.50;13.65;91876.38;5003580;28;20042;-78
2023/12/23 16:36:47;;;;;;;0.70;0.70;;;;;;;15.49;12.89;91885.38;5006298;28;20028;-78
2023/12/23 16:39:12;;;;;;;1.27;0.68;;;;;;;15.44;13.20;91898.78;5007489;28;20057;-78
2023/12/23 16:41:40;;;;;;;1.98;0.70;;;;;;;15.41;13.40;91887.78;5004443;28;20019;-78
2023/12/23 16:44:06;;;;;;;0.55;0.55;;;;;;;15.36;13.16;91903.84;5032888;28;20547;-78
2023/12/23 16:46:37;;;;;;;1.95;0.80;;;;;;;15.26;13.63;91906.91;5000818;28;20377;-78
2023/12/23 16:49:03;;;;;;;1.10;0.70;;;;;;;15.14;14.11;91907.66;4998405;28;20486;-79
2023/12/23 16:51:28;;;;;;;1.88;0.80;;;;;;;15.16;13.43;91894.16;5000847;28;20040;-78
2023/12/23 16:53:54;;;;;;;0.90;0.70;;;;;;;15.01;13.75;91903.47;5001742;28;20038;-78
2023/12/23 16:56:20;;;;;;;0.63;0.60;;;;;;;14.99;13.71;91898.53;5007824;28;20199;-80
2023/12/23 16:58:46;;;;;;;0.77;0.70;;;;;;;15.01;13.72;91898.19;5019751;28;20046;-78
2023/12/23 17:01:13;;;;;;;0.60;0.60;;;;;;;14.99;13.65;91892.47;5007334;28;20129;-81
2023/12/23 17:03:39;;;;;;;0.85;0.70;;;;;;;15.06;12.68;91915.66;4985484;28;20034;-81
2023/12/23 17:06:06;;;;;;;0.52;0.52;;;;;;;15.07;12.78;91914.59;5011052;28;20032;-81
2023/12/23 17:08:31;;;;;;;1.20;0.75;;;;;;;15.05;12.82;91922.03;5008970;28;20638;-81
2023/12/23 17:10:57;;;;;;;0.60;0.60;;;;;;;15.25;12.21;91910.66;5007672;28;20097;-81
2023/12/23 17:13:24;;;;;;;0.50;0.50;;;;;;;15.18;12.72;91903.28;5004449;28;20038;-81
2023/12/23 17:15:49;;;;;;;2.20;0.70;;;;;;;15.22;12.60;91924.50;5020261;28;20034;-80
2023/12/23 17:18:15;;;;;;;0.60;0.60;;;;;;;15.09;12.88;91926.34;5017512;28;20081;-81
2023/12/23 17:20:41;;;;;;;0.73;0.73;;;;;;;15.01;13.16;91926.41;5084601;28;20044;-81
2023/12/23 17:23:07;;;;;;;0.50;0.50;;;;;;;15.07;12.83;91910.06;5087413;28;20045;-80
2023/12/23 17:25:33;;;;;;;0.63;0.63;;;;;;;15.17;12.57;91922.81;5009907;28;20037;-80
2023/12/23 17:27:59;;;;;;;0.60;0.60;;;;;;;15.17;12.52;91925.44;5017095;28;20043;-81
2023/12/23 17:30:24;;;;;;;0.60;0.60;;;;;;;15.27;12.56;91931.41;5054574;28;20119;-83
2023/12/23 17:32:50;;;;;;;2.75;0.80;;;;;;;15.17;12.60;91917.53;5006092;28;20062;-81
2023/12/23 17:35:15;;;;;;;0.63;0.63;;;;;;;15.14;12.67;91939.28;5003694;28;20034;-81
2023/12/23 17:37:41;;;;;;;2.40;0.80;;;;;;;15.06;12.72;91948.06;5013225;28;20069;-80
2023/12/23 17:40:07;;;;;;;0.75;0.75;;;;;;;15.12;12.54;91925.66;5047510;28;20170;-80
2023/12/23 17:42:33;;;;;;;0.73;0.73;;;;;;;15.05;12.74;91935.22;5045945;28;20117;-80
2023/12/23 17:44:59;;;;;;;0.50;0.50;;;;;;;15.13;12.57;91948.31;5015087;28;20037;-80
2023/12/23 17:47:34;;;;;;;0.70;0.70;;;;;;;15.05;12.74;91949.16;5002088;28;20022;-80
2023/12/23 17:50:00;;;;;;;0.55;0.55;;;;;;;15.00;12.68;91944.09;4997271;28;20065;-80
2023/12/23 17:52:26;;;;;;;0.70;0.70;;;;;;;14.93;12.74;91949.91;5014113;28;20037;-80
2023/12/23 17:54:51;;;;;;;0.70;0.70;;;;;;;15.07;12.53;91956.75;5013704;28;20390;-83
2023/12/23 17:57:17;;;;;;;1.45;1.10;;;;;;;15.09;12.53;91946.66;4996268;28;20037;-78
2023/12/23 17:59:42;;;;;;;0.75;0.75;;;;;;;15.03;12.76;91953.22;5003482;28;20034;-79
2023/12/23 18:02:08;;;;;;;0.65;0.65;;;;;;;15.03;12.71;91946.09;4994239;28;20113;-77
2023/12/23 18:04:34;;;;;;;1.30;0.80;;;;;;;14.95;12.89;91953.00;4994740;28;20042;-78
2023/12/23 18:07:00;;;;;;;0.45;0.45;;;;;;;14.94;12.86;91958.56;5000059;28;20045;-79
2023/12/23 18:09:25;;;;;;;2.17;1.10;;;;;;;14.89;13.08;91959.56;4991977;28;20129;-78
2023/12/23 18:11:51;;;;;;;1.00;0.73;;;;;;;14.95;12.97;91949.56;4995008;28;20124;-78
2023/12/23 18:14:16;;;;;;;0.88;0.70;;;;;;;14.95;12.83;91960.09;5012495;28;20595;-78
2023/12/23 18:16:42;;;;;;;0.68;0.50;;;;;;;14.93;12.80;91955.19;5000711;28;20034;-80
2023/12/23 18:19:08;;;;;;;1.05;0.95;;;;;;;15.00;12.84;91965.19;4996140;28;20047;-79
2023/12/23 18:21:33;;;;;;;0.80;0.80;;;;;;;15.09;12.47;91957.97;4992903;28;20492;-78
2023/12/23 18:23:59;;;;;;;0.70;0.70;;;;;;;15.07;12.61;91957.50;5005419;28;20033;-77
2023/12/23 18:26:26;;;;;;;1.42;1.02;;;;;;;14.99;13.07;91979.44;5000269;28;20505;-78
2023/12/23 18:28:52;;;;;;;1.42;1.10;;;;;;;15.29;12.11;91966.91;5001256;28;20040;-78
2023/12/23 18:31:17;;;;;;;1.23;0.90;;;;;;;15.25;12.72;91970.53;5001591;28;20026;-79
2023/12/23 18:33:43;;;;;;;2.10;1.25;;;;;;;15.24;12.75;91968.97;4994829;28;20038;-79
2023/12/23 18:36:09;;;;;;;3.85;1.90;;;;;;;15.09;13.24;91984.31;5001445;28;20042;-80
2023/12/23 18:38:39;;;;;;;4.25;1.80;;;;;;;14.92;13.49;91963.41;5006783;28;20118;-81
2023/12/23 18:41:05;;;;;;;1.13;1.00;;;;;;;14.82;13.26;91971.72;4992411;28;20064;-82
2023/12/23 18:43:31;;;;;;;3.42;1.88;;;;;;;14.69;13.64;91982.19;5002731;28;20034;-80
2023/12/23 18:45:57;;;;;;;4.28;2.20;;;;;;;14.62;13.77;91983.81;4995121;28;20034;-81
2023/12/23 18:48:22;;;;;;;2.70;1.58;;;;;;;14.55;13.74;91981.72;4989576;28;20690;-80
2023/12/23 18:50:48;;;;;;;3.58;1.48;;;;;;;14.46;14.00;91983.63;4994043;28;20046;-82
2023/12/23 18:53:14;;;;;;;1.80;1.08;;;;;;;14.42;13.74;91983.47;5001304;28;20038;-81
2023/12/23 18:55:39;;;;;;;2.33;1.48;;;;;;;14.33;14.26;91991.44;4981457;28;20042;-80
2023/12/23 18:58:07;;;;;;;2.53;1.30;;;;;;;14.34;13.86;91979.81;4994999;28;20030;-80
2023/12/23 19:00:33;;;;;;;1.77;0.95;;;;;;;14.34;14.08;91982.47;4991597;28;20026;-80
2023/12/23 19:02:58;;;;;;;3.15;1.50;;;;;;;14.28;14.32;91998.75;4990178;28;20045;-80
2023/12/23 19:05:24;;;;;;;3.35;1.15;;;;;;;14.15;14.67;91990.00;4993058;28;20034;-80
2023/12/23 19:07:50;;;;;;;2.60;1.40;;;;;;;14.09;14.67;91988.66;4994716;28;20037;-80
2023/12/23 19:10:16;;;;;;;1.27;0.80;;;;;;;14.27;12.91;91990.06;4993859;28;21177;-80
2023/12/23 19:12:41;;;;;;;1.17;1.00;;;;;;;14.38;13.78;91993.09;4990243;28;20041;-80
2023/12/23 19:15:07;;;;;;;3.38;1.70;;;;;;;14.43;14.21;91994.78;4992238;28;20056;-80
2023/12/23 19:17:33;;;;;;;2.40;1.38;;;;;;;14.24;14.62;91993.34;4983559;28;20034;-80
2023/12/23 19:20:02;;;;;;;2.92;1.65;;;;;;;14.05;14.71;91990.38;4988448;28;20148;-80
2023/12/23 19:22:28;;;;;;;0.90;0.80;;;;;;;13.95;14.77;92002.03;4988173;28;20329;-84
2023/12/23 19:24:53;;;;;;;1.48;1.17;;;;;;;13.88;15.03;91997.28;4978582;28;20042;-79
2023/12/23 19:27:19;;;;;;;2.03;1.20;;;;;;;13.77;15.10;92017.16;4991220;28;20041;-79
2023/12/23 19:29:45;;;;;;;1.65;1.13;;;;;;;13.71;14.75;92005.25;4990130;28;20046;-80
2023/12/23 19:32:13;;;;;;;2.40;0.95;;;;;;;13.71;14.43;92011.31;4988089;28;20034;-80
2023/12/23 19:34:41;;;;;;;1.77;1.20;;;;;;;13.68;14.72;92014.56;4991119;28;20061;-80
2023/12/23 19:37:07;;;;;;;1.08;0.90;;;;;;;13.84;14.26;92014.78;4989991;28;20034;-81
2023/12/23 19:39:32;;;;;;;3.90;1.90;;;;;;;13.72;14.87;92019.97;4989126;28;20038;-80
2023/12/23 19:41:59;;;;;;;2.47;1.30;;;;;;;13.70;14.91;92028.16;4994150;28;20087;-80
2023/12/23 19:44:26;;;;;;;1.02;0.80;;;;;;;13.60;15.05;92015.38;4989412;28;20073;-80
2023/12/23 19:46:51;;;;;;;5.78;1.35;;;;;;;13.62;18.49;92015.03;4983622;28;20033;-75
2023/12/23 19:49:17;;;;;;;1.90;1.33;;;;;;;13.64;18.28;92029.41;5018643;28;20041;-79
2023/12/23 19:51:42;;;;;;;4.13;2.13;;;;;;;13.68;15.33;92024.31;4996411;28;20130;-80
2023/12/23 19:54:08;;;;;;;2.33;1.20;;;;;;;13.64;15.39;92008.38;4990336;28;20035;-80
2023/12/23 19:56:33;;;;;;;2.00;0.80;;;;;;;13.65;14.64;92027.56;4996951;28;20042;-80
2023/12/23 19:58:59;;;;;;;0.88;0.70;;;;;;;13.69;14.58;92031.09;4989441;28;20069;-80
2023/12/23 20:01:24;;;;;;;0.47;0.47;;;;;;;13.80;14.04;92032.28;4993389;28;20032;-80
2023/12/23 20:03:51;;;;;;;3.50;1.77;;;;;;;13.81;14.51;92022.56;4991762;28;20042;-80
2023/12/23 20:06:18;;;;;;;4.07;1.70;;;;;;;14.10;13.57;92034.94;4995344;28;20068;-80
2023/12/23 20:08:44;;;;;;;1.02;0.70;;;;;;;13.97;14.46;92033.31;5001317;28;20425;-80
2023/12/23 20:11:09;;;;;;;1.92;1.00;;;;;;;13.84;14.53;92025.31;4994125;28;20034;-80
2023/12/23 20:13:35;;;;;;;2.13;1.33;;;;;;;13.73;15.24;92032.00;4997631;28;21373;-79
2023/12/23 20:16:01;;;;;;;4.35;1.65;;;;;;;13.57;15.69;92044.16;4995422;28;20029;-80
2023/12/23 20:18:27;;;;;;;1.17;0.70;;;;;;;13.42;15.69;92035.69;4995299;28;20038;-80
2023/12/23 20:20:52;;;;;;;0.63;0.63;;;;;;;13.29;15.85;92052.44;4979258;28;20057;-80
2023/12/23 20:23:18;;;;;;;1.20;0.90;;;;;;;13.25;15.36;92033.06;5002993;28;20130;-80
2023/12/23 20:25:44;;;;;;;1.13;0.80;;;;;;;13.16;15.39;92040.97;4993791;28;20030;-80
2023/12/23 20:28:10;;;;;;;1.17;1.00;;;;;;;13.16;15.76;92042.84;5000842;28;20042;-80
2023/12/23 20:30:36;;;;;;;1.55;1.00;;;;;;;13.14;15.68;92043.13;5006566;28;20044;-80
2023/12/23 20:33:01;;;;;;;2.28;1.08;;;;;;;13.16;16.28;92050.72;4999476;28;20042;-80
2023/12/23 20:35:28;;;;;;;1.88;0.85;;;;;;;13.20;15.65;92051.66;5022557;28;20050;-79
2023/12/23 20:37:54;;;;;;;0.80;0.68;;;;;;;13.20;15.77;92052.41;5042664;28;20067;-79
2023/12/23 20:40:19;;;;;;;1.33;0.75;;;;;;;13.24;15.41;92047.28;5048235;28;20297;-79
2023/12/23 20:42:45;;;;;;;3.20;1.40;;;;;;;13.25;15.51;92048.84;4999180;28;20034;-78
2023/12/23 20:45:13;;;;;;;5.65;1.30;;;;;;;13.21;15.93;92058.44;4997942;28;20034;-79
2023/12/23 20:47:38;;;;;;;0.70;0.70;;;;;;;13.12;15.86;92061.06;5017740;28;20035;-79
2023/12/23 20:50:05;;;;;;;0.68;0.68;;;;;;;13.03;16.19;92061.06;5011241;28;20064;-79
2023/12/23 20:52:30;;;;;;;1.65;1.10;;;;;;;12.93;16.84;92058.78;5003405;28;20042;-79
2023/12/23 20:54:56;;;;;;;1.70;1.13;;;;;;;12.80;17.06;92059.72;5004320;28;20029;-79
2023/12/23 20:57:21;;;;;;;1.50;0.82;;;;;;;12.67;17.01;92067.41;5022571;28;20037;-79
2023/12/23 20:59:49;;;;;;;2.72;1.30;;;;;;;12.55;17.83;92069.13;5019782;28;20079;-79
2023/12/23 21:02:15;;;;;;;3.60;1.50;;;;;;;12.44;17.63;92063.41;5052750;28;20030;-77
2023/12/23 21:04:40;;;;;;;8.00;2.83;;;;;;;12.34;18.04;92058.44;5042699;28;20029;-77
2023/12/23 21:07:08;;;;;;;7.85;2.42;;;;;;;12.18;18.54;92066.75;4994972;28;20049;-77
2023/12/23 21:09:35;;;;;;;2.35;1.13;;;;;;;12.22;17.80;92061.66;5013174;28;20042;-77
2023/12/23 21:12:01;;;;;;;2.15;1.20;;;;;;;12.37;16.33;92068.34;5018090;28;20079;-77
2023/12/23 21:14:26;;;;;;;2.78;1.50;;;;;;;12.36;17.01;92053.66;5005352;28;20030;-77
2023/12/23 21:16:53;;;;;;;2.92;1.50;;;;;;;12.37;17.26;92068.34;5003355;28;20154;-78
2023/12/23 21:19:19;;;;;;;2.13;1.10;;;;;;;12.25;17.75;92061.06;5009085;28;20061;-77
2023/12/23 21:21:44;;;;;;;1.50;0.90;;;;;;;12.20;17.56;92077.69;5029663;28;20494;-77
2023/12/23 21:24:10;;;;;;;0.98;0.80;;;;;;;12.13;18.46;92074.75;5036118;28;20034;-77
2023/12/23 21:26:36;;;;;;;2.67;0.93;;;;;;;12.03;17.71;92069.81;5050213;28;20451;-77
2023/12/23 21:29:01;;;;;;;1.25;0.90;;;;;;;11.98;17.50;92073.34;4984605;28;20056;-77
2023/12/23 21:31:27;;;;;;;1.60;0.90;;;;;;;11.96;18.31;92082.59;4986557;28;20049;-76
2023/12/23 21:33:52;;;;;;;2.25;1.30;;;;;;;11.87;19.36;92087.78;4986583;28;20041;-77
2023/12/23 21:36:18;;;;;;;2.78;1.70;;;;;;;11.91;18.67;92077.47;4983991;28;20137;-76
2023/12/23 21:38:44;;;;;;;0.98;0.77;;;;;;;11.85;17.91;92074.97;4994632;28;20588;-78
2023/12/23 21:41:09;;;;;;;1.05;0.70;;;;;;;11.92;17.58;92074.56;4991304;28;20037;-78
2023/12/23 21:43:35;;;;;;;0.93;0.70;;;;;;;11.86;18.51;92078.34;4992250;28;20441;-78
2023/12/23 21:46:01;;;;;;;1.13;0.75;;;;;;;11.82;18.23;92083.44;4989034;28;20064;-78
2023/12/23 21:48:26;;;;;;;1.50;1.00;;;;;;;11.80;18.51;92092.69;5000077;28;20455;-78
2023/12/23 21:50:53;;;;;;;1.73;1.00;;;;;;;11.72;19.09;92085.56;5001330;28;20053;-78
2023/12/23 21:53:23;;;;;;;1.15;0.90;;;;;;;11.65;19.20;92097.25;5056335;28;20527;-78
2023/12/23 21:55:49;;;;;;;0.60;0.60;;;;;;;11.58;19.28;92083.81;5046430;28;20073;-78
2023/12/23 21:58:14;;;;;;;0.60;0.60;;;;;;;11.51;19.82;92099.19;4999124;28;20038;-78
2023/12/23 22:00:40;;;;;;;0.73;0.73;;;;;;;11.42;20.03;92098.38;5023725;28;20040;-78
2023/12/23 22:03:06;;;;;;;1.38;0.90;;;;;;;11.38;19.78;92100.81;5053956;28;20035;-78
2023/12/23 22:05:32;;;;;;;0.85;0.75;;;;;;;11.34;19.90;92109.56;5008426;28;20519;-78
2023/12/23 22:07:58;;;;;;;0.63;0.60;;;;;;;11.33;19.40;92100.94;4996154;28;20031;-78
2023/12/23 22:10:23;;;;;;;0.88;0.80;;;;;;;11.43;18.69;92100.66;5001761;28;20249;-78
2023/12/23 22:12:49;;;;;;;0.60;0.60;;;;;;;11.41;19.17;92108.06;5005618;28;20422;-78
2023/12/23 22:15:15;;;;;;;0.85;0.70;;;;;;;11.37;19.44;92096.66;5001582;28;20042;-78
2023/12/23 22:17:41;;;;;;;0.70;0.70;;;;;;;11.40;18.68;92093.41;5054538;28;20464;-78
2023/12/23 22:20:07;;;;;;;1.00;0.80;;;;;;;11.52;18.47;92108.59;5002660;28;20037;-78
2023/12/23 22:22:33;;;;;;;0.70;0.70;;;;;;;11.58;18.96;92109.25;5016518;28;20116;-78
2023/12/23 22:24:59;;;;;;;0.73;0.65;;;;;;;11.52;19.23;92102.56;5033651;28;20035;-78
